createdAt,value
2023-05-12T00:07:36.520Z,4.90
2023-05-12T00:12:41.633Z,4.13
2023-05-12T00:17:45.266Z,6.80
2023-05-12T00:22:48.749Z,4.95
2023-05-12T00:27:53.799Z,9.52
2023-05-12T00:32:57.597Z,6.95
2023-05-12T00:38:01.119Z,5.75
2023-05-12T00:43:06.080Z,7.00
2023-05-12T00:53:14.322Z,10.50
2023-05-12T00:58:19.210Z,5.60
2023-05-12T01:03:23.105Z,6.35
2023-05-12T01:08:27.044Z,5.63
2023-05-12T01:13:31.912Z,6.43
2023-05-12T01:18:38.489Z,7.25
2023-05-12T01:23:48.195Z,7.47
2023-05-12T01:28:53.767Z,7.82
2023-05-12T01:33:57.276Z,8.95
2023-05-12T01:39:00.904Z,11.93
2023-05-12T01:44:06.055Z,14.18
2023-05-12T01:49:09.677Z,9.77
2023-05-12T01:54:13.341Z,14.02
2023-05-12T01:59:18.315Z,10.32
2023-05-12T02:04:21.790Z,12.82
2023-05-12T02:09:25.301Z,11.93
2023-05-12T02:14:30.238Z,12.85
2023-05-12T02:19:34.018Z,10.75
2023-05-12T02:24:37.658Z,13.25
2023-05-12T02:29:42.495Z,9.45
2023-05-12T02:39:49.415Z,7.47
2023-05-12T02:44:54.357Z,10.60
2023-05-12T02:49:59.602Z,11.80
2023-05-12T02:55:03.060Z,8.75
2023-05-12T03:05:13.006Z,11.05
2023-05-12T03:10:16.630Z,9.00
2023-05-12T03:15:21.483Z,7.88
2023-05-12T03:25:28.114Z,10.65
2023-05-12T03:30:33.397Z,7.47
2023-05-12T03:35:36.886Z,8.48
2023-05-12T03:40:40.301Z,8.75
2023-05-12T03:45:45.418Z,6.97
2023-05-12T03:50:49.084Z,9.60
2023-05-12T03:55:52.614Z,6.90
2023-05-12T04:01:00.354Z,10.50
2023-05-12T04:06:04.749Z,8.00
2023-05-12T04:11:08.679Z,7.45
2023-05-12T04:16:13.580Z,7.22
2023-05-12T04:21:17.399Z,7.35
2023-05-12T04:26:20.969Z,6.90
2023-05-12T04:31:25.880Z,5.55
2023-05-12T04:36:29.606Z,5.50
2023-05-12T04:46:38.316Z,5.45
2023-05-12T04:51:43.082Z,9.23
2023-05-12T04:56:46.545Z,7.88
2023-05-12T05:01:51.686Z,5.75
2023-05-12T05:06:55.804Z,5.93
2023-05-12T05:11:59.486Z,5.65
2023-05-12T05:17:04.457Z,6.35
2023-05-12T05:22:07.990Z,6.50
2023-05-12T05:27:11.507Z,4.30
2023-05-12T05:32:16.860Z,6.13
2023-05-12T05:37:20.539Z,4.40
2023-05-12T05:42:24.007Z,5.85
2023-05-12T05:47:29.050Z,5.25
2023-05-12T05:52:32.642Z,5.05
2023-05-12T05:57:36.175Z,6.13
2023-05-12T06:02:41.751Z,5.05
2023-05-12T06:07:45.361Z,5.03
2023-05-12T06:12:51.089Z,4.75
2023-05-12T06:17:56.397Z,6.45
2023-05-12T06:22:59.978Z,5.82
2023-05-12T06:28:03.518Z,5.20
2023-05-12T06:33:08.658Z,7.20
2023-05-12T06:38:12.195Z,5.30
2023-05-12T06:43:15.701Z,6.25
2023-05-12T06:48:20.880Z,4.68
2023-05-12T06:53:25.607Z,4.53
2023-05-12T06:58:29.393Z,8.63
2023-05-12T07:03:34.830Z,4.30
2023-05-12T07:08:38.449Z,4.53
2023-05-12T07:13:42.026Z,8.23
2023-05-12T07:18:47.420Z,6.15
2023-05-12T07:23:51.019Z,5.00
2023-05-12T07:28:54.639Z,6.32
2023-05-12T07:33:59.593Z,3.42
2023-05-12T07:39:03.087Z,5.72
2023-05-12T07:44:06.923Z,4.97
2023-05-12T07:49:11.797Z,9.43
2023-05-12T07:54:15.424Z,3.72
2023-05-12T07:59:19.146Z,5.40
2023-05-12T08:04:24.081Z,4.13
2023-05-12T08:09:27.564Z,4.38
2023-05-12T08:14:31.024Z,5.45
2023-05-12T08:19:35.979Z,6.88
2023-05-12T08:24:39.670Z,5.70
2023-05-12T08:29:43.154Z,3.15
2023-05-12T08:34:48.119Z,6.82
2023-05-12T08:39:51.651Z,6.18
2023-05-12T08:44:55.445Z,4.72
2023-05-12T08:50:03.358Z,6.93
2023-05-12T08:55:12.201Z,5.83
2023-05-12T09:00:16.907Z,4.50
2023-05-12T09:05:22.299Z,4.40
2023-05-12T09:10:35.126Z,4.72
2023-05-12T09:15:48.660Z,3.28
2023-05-12T09:20:53.652Z,5.93
2023-05-12T09:26:01.829Z,5.00
2023-05-12T09:31:16.286Z,3.45
2023-05-12T09:36:22.108Z,5.20
2023-05-12T09:41:25.799Z,3.83
2023-05-12T09:46:29.387Z,6.55
2023-05-12T09:51:34.894Z,5.15
2023-05-12T09:56:39.835Z,5.28
2023-05-12T10:01:43.983Z,4.68
2023-05-12T10:06:49.221Z,5.63
2023-05-12T10:11:54.165Z,6.35
2023-05-12T10:16:59.320Z,3.72
2023-05-12T10:22:05.467Z,2.72
2023-05-12T10:27:09.543Z,3.40
2023-05-12T10:32:13.331Z,6.35
2023-05-12T10:37:18.339Z,4.28
2023-05-12T10:42:26.167Z,4.60
2023-05-12T10:47:39.007Z,4.05
2023-05-12T10:52:55.018Z,4.47
2023-05-12T10:58:06.603Z,4.32
2023-05-12T11:08:19.858Z,5.07
2023-05-12T11:13:23.999Z,6.40
2023-05-12T11:18:27.816Z,6.95
2023-05-12T11:23:32.772Z,7.65
2023-05-12T11:28:41.591Z,5.78
2023-05-12T11:33:45.183Z,4.50
2023-05-12T11:38:53.117Z,3.67
2023-05-12T11:43:56.652Z,7.45
2023-05-12T11:49:01.592Z,3.97
2023-05-12T11:54:09.148Z,7.55
2023-05-12T11:59:12.806Z,5.90
2023-05-12T12:09:32.235Z,4.53
2023-05-12T12:14:38.140Z,6.43
2023-05-12T12:19:42.017Z,4.65
2023-05-12T12:24:46.998Z,8.45
2023-05-12T12:29:50.983Z,4.93
2023-05-12T12:34:54.619Z,4.07
2023-05-12T12:39:59.770Z,4.55
2023-05-12T12:45:03.947Z,3.63
2023-05-12T12:50:10.812Z,4.65
2023-05-12T12:55:16.067Z,5.03
2023-05-12T13:00:20.575Z,4.97
2023-05-12T13:05:24.322Z,6.95
2023-05-12T13:10:29.561Z,6.32
2023-05-12T13:15:33.421Z,4.72
2023-05-12T13:25:41.770Z,7.43
2023-05-12T13:30:45.475Z,5.03
2023-05-12T13:35:49.229Z,5.65
2023-05-12T13:40:54.638Z,6.70
2023-05-12T13:45:58.274Z,5.65
2023-05-12T13:51:02.255Z,7.18
2023-05-12T13:56:08.816Z,4.32
2023-05-12T14:01:12.614Z,7.38
2023-05-12T14:06:16.349Z,5.88
2023-05-12T14:11:21.306Z,4.43
2023-05-12T14:16:24.926Z,6.63
2023-05-12T14:21:28.657Z,10.73
2023-05-12T14:31:37.366Z,5.40
2023-05-12T14:36:41.110Z,5.15
2023-05-12T14:41:46.042Z,6.35
2023-05-12T14:46:49.631Z,6.13
2023-05-12T14:51:53.434Z,3.95
2023-05-12T15:02:02.002Z,3.72
2023-05-12T15:07:06.319Z,3.70
2023-05-12T15:12:11.696Z,3.40
2023-05-12T15:17:15.382Z,7.68
2023-05-12T15:22:19.039Z,2.78
2023-05-12T15:27:24.016Z,5.13
2023-05-12T15:32:27.679Z,7.90
2023-05-12T15:37:31.244Z,3.15
2023-05-12T15:42:36.232Z,4.70
2023-05-12T15:47:40.139Z,6.22
2023-05-12T15:52:43.743Z,4.57
2023-05-12T15:57:48.745Z,8.05
2023-05-12T16:02:52.354Z,6.60
2023-05-12T16:07:55.954Z,5.60
2023-05-12T16:13:01.006Z,5.40
2023-05-12T16:18:06.993Z,4.05
2023-05-12T16:23:12.798Z,5.85
2023-05-12T16:28:17.854Z,5.80
2023-05-12T16:33:21.630Z,7.15
2023-05-12T16:38:25.511Z,5.70
2023-05-12T16:43:30.458Z,6.95
2023-05-12T16:48:35.225Z,8.65
2023-05-12T16:53:39.333Z,9.93
2023-05-12T16:58:44.488Z,5.50
2023-05-12T17:03:48.342Z,7.28
2023-05-12T17:08:52.109Z,9.57
2023-05-12T17:13:57.566Z,5.13
2023-05-12T17:24:08.536Z,6.95
2023-05-12T17:29:13.533Z,4.82
2023-05-12T17:34:17.090Z,8.57
2023-05-12T17:39:20.689Z,6.40
2023-05-12T17:44:25.840Z,7.47
2023-05-12T17:49:29.476Z,6.47
2023-05-12T17:54:33.145Z,11.77
2023-05-12T17:59:38.389Z,11.30
2023-05-12T18:04:42.022Z,14.18
2023-05-12T18:09:45.847Z,16.50
2023-05-12T18:14:51.803Z,11.63
2023-05-12T18:19:55.676Z,13.93
2023-05-12T18:24:59.273Z,24.48
2023-05-12T18:30:04.345Z,16.87
2023-05-12T18:35:09.948Z,21.50
2023-05-12T18:40:14.059Z,18.70
2023-05-12T18:45:19.829Z,21.23
2023-05-12T18:50:23.899Z,20.23
2023-05-12T18:55:27.619Z,20.58
2023-05-12T19:00:33.745Z,20.87
2023-05-12T19:05:38.029Z,19.98
2023-05-12T19:10:41.890Z,22.63
2023-05-12T19:15:47.023Z,21.30
2023-05-12T19:20:50.623Z,17.50
2023-05-12T19:25:54.849Z,21.00
2023-05-12T19:31:00.272Z,16.67
2023-05-12T19:36:04.121Z,28.80
2023-05-12T19:41:07.679Z,19.47
2023-05-12T19:46:12.949Z,21.40
2023-05-12T19:51:16.795Z,18.95
2023-05-12T19:56:20.925Z,17.40
2023-05-12T20:01:26.253Z,30.73
2023-05-12T20:06:29.969Z,18.98
2023-05-12T20:11:33.646Z,18.25
2023-05-12T20:16:39.135Z,23.17
2023-05-12T20:21:42.805Z,27.88
2023-05-12T20:26:46.424Z,20.90
2023-05-12T20:31:52.705Z,20.63
2023-05-12T20:36:56.325Z,18.13
2023-05-12T20:42:00.270Z,19.40
2023-05-12T20:47:05.495Z,20.23
2023-05-12T20:52:09.364Z,13.38
2023-05-12T20:57:12.984Z,16.50
2023-05-12T21:02:19.056Z,15.32
2023-05-12T21:07:22.937Z,20.48
2023-05-12T21:12:26.567Z,19.88
2023-05-12T21:17:31.538Z,18.85
2023-05-12T21:22:35.064Z,15.43
2023-05-12T21:27:40.809Z,17.13
2023-05-12T21:32:46.337Z,14.55
2023-05-12T21:37:50.231Z,12.70
2023-05-12T21:42:53.688Z,13.80
2023-05-12T21:47:58.623Z,15.13
2023-05-12T21:53:02.188Z,13.57
2023-05-12T21:58:05.718Z,12.65
2023-05-12T22:03:10.913Z,14.80
2023-05-12T22:08:14.911Z,11.95
2023-05-12T22:13:19.274Z,8.93
2023-05-12T22:18:24.243Z,13.90
2023-05-12T22:23:27.746Z,14.57
2023-05-12T22:28:31.238Z,13.75
2023-05-12T22:33:36.349Z,10.10
2023-05-12T22:38:39.898Z,12.68
2023-05-12T22:43:43.331Z,9.73
2023-05-12T22:48:48.205Z,10.20
2023-05-12T22:53:51.685Z,15.40
2023-05-12T22:58:55.161Z,14.95
2023-05-12T23:04:00.065Z,10.20
2023-05-12T23:09:03.706Z,14.25
2023-05-12T23:14:07.174Z,13.95
2023-05-12T23:19:12.262Z,13.15
2023-05-12T23:24:15.877Z,14.82
2023-05-12T23:29:19.521Z,12.85
2023-05-12T23:34:24.396Z,13.88
2023-05-12T23:39:27.920Z,12.98
2023-05-12T23:44:31.923Z,15.30
2023-05-12T23:49:36.860Z,13.10
2023-05-12T23:54:40.465Z,14.93
2023-05-12T23:59:43.924Z,14.40
